createdAt,value
2018-08-03T00:01:51.059Z,99.90
2018-08-03T00:04:20.250Z,99.90
2018-08-03T00:06:49.427Z,99.90
2018-08-03T00:09:18.538Z,99.90
2018-08-03T00:11:47.690Z,99.90
2018-08-03T00:14:17.868Z,99.90
2018-08-03T00:16:47.024Z,99.90
2018-08-03T00:19:16.129Z,99.90
2018-08-03T00:21:45.264Z,99.90
2018-08-03T00:24:14.390Z,99.90
2018-08-03T00:26:43.572Z,99.90
2018-08-03T00:29:12.745Z,99.90
2018-08-03T00:31:41.905Z,99.90
2018-08-03T00:34:11.049Z,99.90
2018-08-03T00:36:40.192Z,99.90
2018-08-03T00:39:10.451Z,99.90
2018-08-03T00:41:39.606Z,99.90
2018-08-03T00:46:37.562Z,99.90
2018-08-03T00:49:06.669Z,99.90
2018-08-03T00:51:35.818Z,99.90
2018-08-03T00:54:05.037Z,99.90
2018-08-03T00:56:34.210Z,99.90
2018-08-03T00:59:03.306Z,99.90
2018-08-03T01:01:32.458Z,99.90
2018-08-03T01:04:01.586Z,99.90
2018-08-03T01:06:30.660Z,99.90
2018-08-03T01:08:59.712Z,99.90
2018-08-03T01:11:28.822Z,99.90
2018-08-03T01:13:57.915Z,99.90
2018-08-03T01:16:27.001Z,99.90
2018-08-03T01:18:56.079Z,99.90
2018-08-03T01:21:25.197Z,99.90
2018-08-03T01:23:54.383Z,99.90
2018-08-03T01:26:23.480Z,99.90
2018-08-03T01:28:52.588Z,99.90
2018-08-03T01:31:21.641Z,99.90
2018-08-03T01:33:50.755Z,99.90
2018-08-03T01:36:19.818Z,99.90
2018-08-03T01:38:48.894Z,99.90
2018-08-03T01:41:17.950Z,99.90
2018-08-03T01:43:47.029Z,99.90
2018-08-03T01:46:16.091Z,99.90
2018-08-03T01:48:45.186Z,99.90
2018-08-03T01:51:14.242Z,99.90
2018-08-03T01:53:43.348Z,99.90
2018-08-03T01:56:12.409Z,99.90
2018-08-03T01:58:41.496Z,99.90
2018-08-03T02:01:10.972Z,99.90
2018-08-03T02:03:40.115Z,99.90
2018-08-03T02:06:09.250Z,99.90
2018-08-03T02:08:38.440Z,99.90
2018-08-03T02:11:07.518Z,99.90
2018-08-03T02:13:36.681Z,99.90
2018-08-03T02:16:05.742Z,99.90
2018-08-03T02:18:34.894Z,99.90
2018-08-03T02:21:04.106Z,99.90
2018-08-03T02:23:33.217Z,99.90
2018-08-03T02:26:02.273Z,99.90
2018-08-03T02:28:31.375Z,99.90
2018-08-03T02:31:00.522Z,99.90
2018-08-03T02:33:29.821Z,99.90
2018-08-03T02:35:58.966Z,99.90
2018-08-03T02:38:28.306Z,99.90
2018-08-03T02:40:57.694Z,99.90
2018-08-03T02:43:27.130Z,99.90
2018-08-03T02:45:56.257Z,99.90
2018-08-03T02:48:25.415Z,99.90
2018-08-03T02:50:54.838Z,99.90
2018-08-03T02:53:23.990Z,99.90
2018-08-03T02:55:53.117Z,99.90
2018-08-03T02:58:22.279Z,99.90
2018-08-03T03:00:51.432Z,99.90
2018-08-03T03:03:20.686Z,99.90
2018-08-03T03:05:49.814Z,99.90
2018-08-03T03:08:18.970Z,99.90
2018-08-03T03:10:48.133Z,99.90
2018-08-03T03:13:17.402Z,99.90
2018-08-03T03:15:46.529Z,99.90
2018-08-03T03:18:15.656Z,99.90
2018-08-03T03:20:44.813Z,99.90
2018-08-03T03:23:14.008Z,99.90
2018-08-03T03:25:43.155Z,99.90
2018-08-03T03:28:12.298Z,99.90
2018-08-03T03:30:41.438Z,99.90
2018-08-03T03:33:10.633Z,99.90
2018-08-03T03:35:39.790Z,99.90
2018-08-03T03:38:08.970Z,99.90
2018-08-03T03:40:38.145Z,99.90
2018-08-03T03:45:36.078Z,99.90
2018-08-03T03:48:05.213Z,99.90
2018-08-03T03:50:34.393Z,99.90
2018-08-03T03:53:03.622Z,99.90
2018-08-03T03:55:32.746Z,99.90
2018-08-03T03:58:01.872Z,99.90
2018-08-03T04:00:31.010Z,99.90
2018-08-03T04:03:00.198Z,99.90
2018-08-03T04:05:29.348Z,99.90
2018-08-03T04:07:58.465Z,99.90
2018-08-03T04:10:27.618Z,99.90
2018-08-03T04:12:56.758Z,99.90
2018-08-03T04:15:25.919Z,99.90
2018-08-03T04:17:55.044Z,99.90
2018-08-03T04:20:24.331Z,99.90
2018-08-03T04:22:53.457Z,99.90
2018-08-03T04:25:22.605Z,99.90
2018-08-03T04:27:51.690Z,99.90
2018-08-03T04:30:20.802Z,99.90
2018-08-03T04:32:49.912Z,99.90
2018-08-03T04:35:19.010Z,99.90
2018-08-03T04:37:48.074Z,99.90
2018-08-03T04:40:17.198Z,99.90
2018-08-03T04:42:46.397Z,99.90
2018-08-03T04:45:15.551Z,99.90
2018-08-03T04:47:44.637Z,99.90
2018-08-03T04:50:13.785Z,99.90
2018-08-03T04:52:43.006Z,99.90
2018-08-03T04:55:12.114Z,99.90
2018-08-03T04:57:41.217Z,99.90
2018-08-03T05:00:10.351Z,99.90
2018-08-03T05:02:39.416Z,99.90
2018-08-03T05:05:09.055Z,99.90
2018-08-03T05:07:38.439Z,99.90
2018-08-03T05:10:07.741Z,99.90
2018-08-03T05:12:37.151Z,99.90
2018-08-03T05:15:07.055Z,99.90
2018-08-03T05:17:36.126Z,99.90
2018-08-03T05:20:06.466Z,99.90
2018-08-03T05:22:35.597Z,99.90
2018-08-03T05:25:05.102Z,99.90
2018-08-03T05:27:34.389Z,99.90
2018-08-03T05:30:03.570Z,99.90
2018-08-03T05:32:32.720Z,99.90
2018-08-03T05:35:01.878Z,99.90
2018-08-03T05:37:31.066Z,99.90
2018-08-03T05:40:00.196Z,99.90
2018-08-03T05:42:29.402Z,99.90
2018-08-03T05:44:58.488Z,99.90
2018-08-03T05:47:27.640Z,99.90
2018-08-03T05:49:56.778Z,99.90
2018-08-03T05:52:26.089Z,99.90
2018-08-03T05:54:55.177Z,99.90
2018-08-03T05:57:24.347Z,99.90
2018-08-03T05:59:53.595Z,99.90
2018-08-03T06:04:51.993Z,99.90
2018-08-03T06:07:21.195Z,99.90
2018-08-03T06:09:50.359Z,99.90
2018-08-03T06:12:19.528Z,99.90
2018-08-03T06:14:48.682Z,99.90
2018-08-03T06:17:17.821Z,99.90
2018-08-03T06:19:46.985Z,99.90
2018-08-03T06:22:16.122Z,99.90
2018-08-03T06:24:45.274Z,99.90
2018-08-03T06:27:14.373Z,99.90
2018-08-03T06:29:43.498Z,99.90
2018-08-03T06:32:12.741Z,99.90
2018-08-03T06:34:41.926Z,99.90
2018-08-03T06:37:11.041Z,99.90
2018-08-03T06:39:40.129Z,99.90
2018-08-03T06:42:09.321Z,99.90
2018-08-03T06:44:38.399Z,99.90
2018-08-03T06:47:07.509Z,99.90
2018-08-03T06:49:36.593Z,99.90
2018-08-03T06:52:05.684Z,99.90
2018-08-03T06:54:34.780Z,99.90
2018-08-03T06:57:03.871Z,99.90
2018-08-03T06:59:32.967Z,99.90
2018-08-03T07:02:02.082Z,99.90
2018-08-03T07:04:31.283Z,99.90
2018-08-03T07:07:00.335Z,99.50
2018-08-03T07:09:29.433Z,99.80
2018-08-03T07:11:58.497Z,99.80
2018-08-03T07:14:27.621Z,99.90
2018-08-03T07:16:56.705Z,99.00
2018-08-03T07:19:25.832Z,99.20
2018-08-03T07:21:54.914Z,98.40
2018-08-03T07:24:24.045Z,98.10
2018-08-03T07:26:53.159Z,97.70
2018-08-03T07:29:22.329Z,97.50
2018-08-03T07:31:51.474Z,95.90
2018-08-03T07:36:49.401Z,95.40
2018-08-03T07:39:18.561Z,94.50
2018-08-03T07:41:47.785Z,94.10
2018-08-03T07:44:16.970Z,93.60
2018-08-03T07:46:46.096Z,93.40
2018-08-03T07:49:15.401Z,91.70
2018-08-03T07:51:44.660Z,91.90
2018-08-03T07:54:13.793Z,92.60
2018-08-03T07:56:42.923Z,92.80
2018-08-03T07:59:12.066Z,91.50
2018-08-03T08:01:41.247Z,90.70
2018-08-03T08:04:10.443Z,91.40
2018-08-03T08:06:39.557Z,91.30
2018-08-03T08:09:10.530Z,90.40
2018-08-03T08:11:39.921Z,91.10
2018-08-03T08:14:09.301Z,90.20
2018-08-03T08:16:38.445Z,87.10
2018-08-03T08:19:07.641Z,87.20
2018-08-03T08:21:36.976Z,89.40
2018-08-03T08:24:06.174Z,88.20
2018-08-03T08:26:35.333Z,89.90
2018-08-03T08:29:04.531Z,86.50
2018-08-03T08:31:33.879Z,85.70
2018-08-03T08:34:03.006Z,87.50
2018-08-03T08:36:32.125Z,85.70
2018-08-03T08:39:01.256Z,86.50
2018-08-03T08:41:30.377Z,83.60
2018-08-03T08:43:59.520Z,83.60
2018-08-03T08:46:28.585Z,82.80
2018-08-03T08:51:26.346Z,78.80
2018-08-03T08:53:55.439Z,77.90
2018-08-03T08:56:24.569Z,77.70
2018-08-03T08:58:53.629Z,74.40
2018-08-03T09:01:22.818Z,75.60
2018-08-03T09:03:52.428Z,74.70
2018-08-03T09:06:21.526Z,73.90
2018-08-03T09:08:50.595Z,73.80
2018-08-03T09:11:19.750Z,73.00
2018-08-03T09:13:48.825Z,73.80
2018-08-03T09:16:17.942Z,72.00
2018-08-03T09:18:47.053Z,74.00
2018-08-03T09:21:16.226Z,70.70
2018-08-03T09:23:45.323Z,71.10
2018-08-03T09:28:43.090Z,68.30
2018-08-03T09:31:12.189Z,68.60
2018-08-03T09:33:41.236Z,68.70
2018-08-03T09:36:10.334Z,69.20
2018-08-03T09:38:39.397Z,69.30
2018-08-03T09:41:08.541Z,67.20
2018-08-03T09:43:37.632Z,63.70
2018-08-03T09:46:06.715Z,65.30
2018-08-03T09:48:35.777Z,63.10
2018-08-03T09:51:04.914Z,62.60
2018-08-03T09:53:33.990Z,64.50
2018-08-03T09:56:03.101Z,64.20
2018-08-03T09:58:32.182Z,64.50
2018-08-03T10:01:06.618Z,62.60
2018-08-03T10:03:35.669Z,63.80
2018-08-03T10:06:04.802Z,62.80
2018-08-03T10:08:34.054Z,62.70
2018-08-03T10:11:03.149Z,61.20
2018-08-03T10:13:32.232Z,61.20
2018-08-03T10:16:01.329Z,61.40
2018-08-03T10:18:30.742Z,59.80
2018-08-03T10:20:59.911Z,59.30
2018-08-03T10:23:29.007Z,59.60
2018-08-03T10:25:58.130Z,58.70
2018-08-03T10:28:27.241Z,60.00
2018-08-03T10:30:56.366Z,58.10
2018-08-03T10:33:25.464Z,57.20
2018-08-03T10:35:54.593Z,57.10
2018-08-03T10:38:23.658Z,57.40
2018-08-03T10:40:52.766Z,56.60
2018-08-03T10:43:21.870Z,55.70
2018-08-03T10:45:50.969Z,57.60
2018-08-03T10:48:20.056Z,55.80
2018-08-03T10:50:49.243Z,55.70
2018-08-03T10:53:18.356Z,55.90
2018-08-03T10:55:47.422Z,55.70
2018-08-03T10:58:16.534Z,55.10
2018-08-03T11:00:45.609Z,55.30
2018-08-03T11:05:43.406Z,54.10
2018-08-03T11:08:12.487Z,55.50
2018-08-03T11:10:41.638Z,55.00
2018-08-03T11:13:10.722Z,54.70
2018-08-03T11:15:39.786Z,55.00
2018-08-03T11:18:09.550Z,55.40
2018-08-03T11:20:38.683Z,54.60
2018-08-03T11:23:07.945Z,54.00
2018-08-03T11:25:37.012Z,54.40
2018-08-03T11:28:06.130Z,54.20
2018-08-03T11:33:04.085Z,54.40
2018-08-03T11:35:33.182Z,53.70
2018-08-03T11:38:02.291Z,53.50
2018-08-03T11:40:31.489Z,53.90
2018-08-03T11:43:00.590Z,53.20
2018-08-03T11:45:29.649Z,54.50
2018-08-03T11:47:58.744Z,54.80
2018-08-03T11:50:27.825Z,53.50
2018-08-03T11:52:56.909Z,53.10
2018-08-03T11:55:25.970Z,52.70
2018-08-03T11:57:55.237Z,52.10
2018-08-03T12:00:24.331Z,52.40
2018-08-03T12:02:53.433Z,51.20
2018-08-03T12:05:22.513Z,50.60
2018-08-03T12:07:51.654Z,49.60
2018-08-03T12:10:20.837Z,48.20
2018-08-03T12:12:49.924Z,47.60
2018-08-03T12:15:19.017Z,47.70
2018-08-03T12:17:48.133Z,47.40
2018-08-03T12:20:17.282Z,47.70
2018-08-03T12:22:46.407Z,47.90
2018-08-03T12:25:15.497Z,48.30
2018-08-03T12:27:44.658Z,47.40
2018-08-03T12:30:13.770Z,48.30
2018-08-03T12:32:42.926Z,46.20
2018-08-03T12:35:12.064Z,46.70
2018-08-03T12:37:41.203Z,48.30
2018-08-03T12:40:10.332Z,45.80
2018-08-03T12:42:39.506Z,44.70
2018-08-03T12:45:08.621Z,46.00
2018-08-03T12:47:37.761Z,45.80
2018-08-03T12:50:06.978Z,47.10
2018-08-03T12:52:36.176Z,45.10
2018-08-03T12:55:05.314Z,45.60
2018-08-03T12:57:34.427Z,45.40
2018-08-03T13:02:32.524Z,45.70
2018-08-03T13:05:01.681Z,46.40
2018-08-03T13:07:30.820Z,44.60
2018-08-03T13:09:59.954Z,44.60
2018-08-03T13:12:29.094Z,44.50
2018-08-03T13:14:58.645Z,45.30
2018-08-03T13:17:27.843Z,45.10
2018-08-03T13:19:57.021Z,46.10
2018-08-03T13:22:26.183Z,46.90
2018-08-03T13:24:55.353Z,45.70
2018-08-03T13:27:24.516Z,46.40
2018-08-03T13:29:53.651Z,46.30
2018-08-03T13:32:22.810Z,45.10
2018-08-03T13:34:52.020Z,45.50
2018-08-03T13:37:21.232Z,46.40
2018-08-03T13:39:50.468Z,44.90
2018-08-03T13:42:19.617Z,44.10
2018-08-03T13:44:48.789Z,44.40
2018-08-03T13:47:17.929Z,45.10
2018-08-03T13:49:47.058Z,45.40
2018-08-03T13:52:17.269Z,45.70
2018-08-03T13:54:46.475Z,46.40
2018-08-03T13:57:15.611Z,45.60
2018-08-03T13:59:44.809Z,46.10
2018-08-03T14:02:21.988Z,47.90
2018-08-03T14:04:51.135Z,48.00
2018-08-03T14:07:21.082Z,47.30
2018-08-03T14:09:50.302Z,46.90
2018-08-03T14:12:19.487Z,48.20
2018-08-03T14:14:48.610Z,48.20
2018-08-03T14:17:17.705Z,48.00
2018-08-03T14:19:46.865Z,46.80
2018-08-03T14:22:16.058Z,46.10
2018-08-03T14:24:45.174Z,45.50
2018-08-03T14:27:14.320Z,47.60
2018-08-03T14:32:12.097Z,47.00
2018-08-03T14:34:41.218Z,47.80
2018-08-03T14:37:10.410Z,47.80
2018-08-03T14:39:39.558Z,47.40
2018-08-03T14:42:08.702Z,47.30
2018-08-03T14:44:37.812Z,48.00
2018-08-03T14:47:06.900Z,47.40
2018-08-03T14:49:35.988Z,45.70
2018-08-03T14:52:05.340Z,46.60
2018-08-03T14:54:34.461Z,46.50
2018-08-03T14:57:03.529Z,47.00
2018-08-03T14:59:32.634Z,47.40
2018-08-03T15:02:01.722Z,47.50
2018-08-03T15:04:30.837Z,47.40
2018-08-03T15:06:59.910Z,47.10
2018-08-03T15:09:28.998Z,45.80
2018-08-03T15:11:58.070Z,47.10
2018-08-03T15:14:27.169Z,47.00
2018-08-03T15:16:56.247Z,47.10
2018-08-03T15:19:25.390Z,46.80
2018-08-03T15:21:54.477Z,47.80
2018-08-03T15:24:23.549Z,46.00
2018-08-03T15:26:52.661Z,46.70
2018-08-03T15:29:23.169Z,46.30
2018-08-03T15:31:52.921Z,47.30
2018-08-03T15:34:23.135Z,47.00
2018-08-03T15:36:52.826Z,46.70
2018-08-03T15:39:23.046Z,47.00
2018-08-03T15:41:52.195Z,47.20
2018-08-03T15:44:21.306Z,47.60
2018-08-03T15:46:50.456Z,46.60
2018-08-03T15:49:19.565Z,47.40
2018-08-03T15:51:49.597Z,46.90
2018-08-03T15:54:18.753Z,47.10
2018-08-03T15:56:47.886Z,47.50
2018-08-03T15:59:17.094Z,48.00
2018-08-03T16:01:46.896Z,47.50
2018-08-03T16:04:16.919Z,48.20
2018-08-03T16:06:47.780Z,47.80
2018-08-03T16:09:17.835Z,48.10
2018-08-03T16:11:48.345Z,48.40
2018-08-03T16:14:17.904Z,47.90
2018-08-03T16:16:47.921Z,47.60
2018-08-03T16:19:17.108Z,48.40
2018-08-03T16:21:47.461Z,48.50
2018-08-03T16:26:47.591Z,48.90
2018-08-03T16:29:17.786Z,48.60
2018-08-03T16:31:47.013Z,49.30
2018-08-03T16:34:16.158Z,49.60
2018-08-03T16:36:45.357Z,49.50
2018-08-03T16:39:15.012Z,49.60
2018-08-03T16:41:44.162Z,49.40
2018-08-03T16:44:13.301Z,48.50
2018-08-03T16:46:42.488Z,48.80
2018-08-03T16:49:11.706Z,49.30
2018-08-03T16:51:40.832Z,49.20
2018-08-03T16:56:38.719Z,50.70
2018-08-03T16:59:07.928Z,51.00
2018-08-03T17:01:37.085Z,49.90
2018-08-03T17:04:06.224Z,49.90
2018-08-03T17:06:35.354Z,50.60
2018-08-03T17:09:06.533Z,50.90
2018-08-03T17:11:35.689Z,51.00
2018-08-03T17:14:04.858Z,51.50
2018-08-03T17:16:34.270Z,51.30
2018-08-03T17:19:03.433Z,50.30
2018-08-03T17:21:32.595Z,50.70
2018-08-03T17:24:01.706Z,50.40
2018-08-03T17:26:30.838Z,50.90
2018-08-03T17:29:00.014Z,51.10
2018-08-03T17:31:29.184Z,51.30
2018-08-03T17:33:58.316Z,50.70
2018-08-03T17:36:27.464Z,52.10
2018-08-03T17:38:56.673Z,51.50
2018-08-03T17:43:54.553Z,52.00
2018-08-03T17:46:23.681Z,52.50
2018-08-03T17:48:53.321Z,53.10
2018-08-03T17:51:23.408Z,53.30
2018-08-03T17:53:52.534Z,53.40
2018-08-03T17:56:21.650Z,53.60
2018-08-03T17:58:50.837Z,54.40
2018-08-03T18:01:20.009Z,53.80
2018-08-03T18:03:49.230Z,53.60
2018-08-03T18:06:18.553Z,53.30
2018-08-03T18:08:47.794Z,54.30
2018-08-03T18:11:16.918Z,54.70
2018-08-03T18:13:47.623Z,54.60
2018-08-03T18:16:16.957Z,54.80
2018-08-03T18:18:46.249Z,54.80
2018-08-03T18:21:15.397Z,55.60
2018-08-03T18:23:44.543Z,55.80
2018-08-03T18:26:13.707Z,56.40
2018-08-03T18:28:42.934Z,55.80
2018-08-03T18:31:12.033Z,56.70
2018-08-03T18:36:09.875Z,56.90
2018-08-03T18:38:39.161Z,59.30
2018-08-03T18:41:08.324Z,60.60
2018-08-03T18:43:37.462Z,61.00
2018-08-03T18:46:06.858Z,64.40
2018-08-03T18:48:35.970Z,65.30
2018-08-03T18:51:05.330Z,66.70
2018-08-03T18:53:34.489Z,67.70
2018-08-03T18:56:03.622Z,70.00
2018-08-03T18:58:32.762Z,71.10
2018-08-03T19:01:02.034Z,72.10
2018-08-03T19:03:31.198Z,72.60
2018-08-03T19:06:00.326Z,74.30
2018-08-03T19:08:29.451Z,75.20
2018-08-03T19:10:58.567Z,76.70
2018-08-03T19:13:27.746Z,77.70
2018-08-03T19:15:56.870Z,78.90
2018-08-03T19:18:26.010Z,79.90
2018-08-03T19:20:55.153Z,81.40
2018-08-03T19:23:24.353Z,83.20
2018-08-03T19:25:53.727Z,84.20
2018-08-03T19:28:24.741Z,85.80
2018-08-03T19:30:53.893Z,87.70
2018-08-03T19:33:22.994Z,90.00
2018-08-03T19:35:52.534Z,90.60
2018-08-03T19:38:21.959Z,91.00
2018-08-03T19:40:51.087Z,91.40
2018-08-03T19:43:20.211Z,91.30
2018-08-03T19:45:49.382Z,91.40
2018-08-03T19:48:18.662Z,91.60
2018-08-03T19:50:47.962Z,92.00
2018-08-03T19:53:17.126Z,92.50
2018-08-03T19:55:46.321Z,92.20
2018-08-03T19:58:15.574Z,92.10
2018-08-03T20:00:44.737Z,93.00
2018-08-03T20:03:13.998Z,93.00
2018-08-03T20:05:43.221Z,93.50
2018-08-03T20:08:12.518Z,94.30
2018-08-03T20:10:41.901Z,94.40
2018-08-03T20:13:11.050Z,94.50
2018-08-03T20:15:40.269Z,94.70
2018-08-03T20:18:09.370Z,94.50
2018-08-03T20:20:38.554Z,94.50
2018-08-03T20:23:07.677Z,95.50
2018-08-03T20:25:36.839Z,96.00
2018-08-03T20:28:05.979Z,95.90
2018-08-03T20:30:35.119Z,95.90
2018-08-03T20:33:04.265Z,96.50
2018-08-03T20:35:33.358Z,96.10
2018-08-03T20:38:04.305Z,95.40
2018-08-03T20:40:33.442Z,95.60
2018-08-03T20:43:02.506Z,96.50
2018-08-03T20:45:31.631Z,96.60
2018-08-03T20:48:00.780Z,96.10
2018-08-03T20:50:29.905Z,96.20
2018-08-03T20:52:58.974Z,96.50
2018-08-03T20:55:28.143Z,96.80
2018-08-03T20:57:57.219Z,97.40
2018-08-03T21:00:26.468Z,97.60
2018-08-03T21:02:55.535Z,97.70
2018-08-03T21:05:24.649Z,98.50
2018-08-03T21:07:53.745Z,98.80
2018-08-03T21:10:22.858Z,99.00
2018-08-03T21:12:51.930Z,99.10
2018-08-03T21:15:21.022Z,99.20
2018-08-03T21:17:50.161Z,99.50
2018-08-03T21:20:19.570Z,99.50
2018-08-03T21:22:48.676Z,99.90
2018-08-03T21:25:17.792Z,99.90
2018-08-03T21:27:46.970Z,99.90
2018-08-03T21:30:16.268Z,99.90
2018-08-03T21:32:45.396Z,99.90
2018-08-03T21:35:14.573Z,99.90
2018-08-03T21:37:43.733Z,99.90
2018-08-03T21:40:12.944Z,99.90
2018-08-03T21:42:42.105Z,99.90
2018-08-03T21:45:11.217Z,99.90
2018-08-03T21:47:40.448Z,99.90
2018-08-03T21:50:11.286Z,99.90
2018-08-03T21:52:40.452Z,99.90
2018-08-03T21:55:09.575Z,99.90
2018-08-03T21:57:38.770Z,99.90
2018-08-03T22:00:11.479Z,99.90
2018-08-03T22:02:40.625Z,99.90
2018-08-03T22:05:09.773Z,99.90
2018-08-03T22:07:39.362Z,99.90
2018-08-03T22:10:08.541Z,99.90
2018-08-03T22:12:37.673Z,99.90
2018-08-03T22:15:06.801Z,99.90
2018-08-03T22:17:36.060Z,99.90
2018-08-03T22:20:06.067Z,99.90
2018-08-03T22:22:35.212Z,99.90
2018-08-03T22:25:05.033Z,99.90
2018-08-03T22:27:34.138Z,99.90
2018-08-03T22:30:03.273Z,99.90
2018-08-03T22:32:32.393Z,99.90
2018-08-03T22:35:01.505Z,99.90
2018-08-03T22:37:30.642Z,99.90
2018-08-03T22:39:59.704Z,99.90
2018-08-03T22:42:28.810Z,99.90
2018-08-03T22:44:57.881Z,99.90
2018-08-03T22:47:27.146Z,99.90
2018-08-03T22:49:56.265Z,99.90
2018-08-03T22:52:25.397Z,99.90
2018-08-03T22:54:54.510Z,99.90
2018-08-03T22:57:23.641Z,99.90
2018-08-03T22:59:52.765Z,99.90
2018-08-03T23:02:21.910Z,99.90
2018-08-03T23:04:51.029Z,99.90
2018-08-03T23:07:20.262Z,99.90
2018-08-03T23:09:49.389Z,99.90
2018-08-03T23:12:18.529Z,99.90
2018-08-03T23:14:47.654Z,99.90
2018-08-03T23:17:16.818Z,99.90
2018-08-03T23:19:45.938Z,99.90
2018-08-03T23:22:15.082Z,99.90
2018-08-03T23:24:44.189Z,99.90
2018-08-03T23:27:13.543Z,99.90
2018-08-03T23:29:42.712Z,99.90
2018-08-03T23:32:11.863Z,99.90
2018-08-03T23:34:40.998Z,99.90
2018-08-03T23:37:10.126Z,99.90
2018-08-03T23:39:39.266Z,99.90
2018-08-03T23:42:08.383Z,99.90
2018-08-03T23:44:37.506Z,99.90
2018-08-03T23:47:06.623Z,99.90
2018-08-03T23:49:35.757Z,99.90
2018-08-03T23:52:04.950Z,99.90
2018-08-03T23:54:34.085Z,99.90
2018-08-03T23:57:03.358Z,99.90
2018-08-03T23:59:32.512Z,99.90
